createdAt,value
2018-01-30T00:02:27.748Z,99082.23
2018-01-30T00:04:56.050Z,99076.80
2018-01-30T00:07:24.319Z,99077.39
2018-01-30T00:09:52.572Z,99075.12
2018-01-30T00:12:20.831Z,99077.58
2018-01-30T00:14:49.090Z,99077.81
2018-01-30T00:17:17.413Z,99081.88
2018-01-30T00:19:45.709Z,99086.08
2018-01-30T00:22:14.725Z,99093.41
2018-01-30T00:24:43.015Z,99086.65
2018-01-30T00:27:12.025Z,99090.25
2018-01-30T00:29:41.065Z,99091.86
2018-01-30T00:32:09.804Z,99093.31
2018-01-30T00:34:38.061Z,99090.66
2018-01-30T00:37:06.319Z,99096.16
2018-01-30T00:39:34.585Z,99102.61
2018-01-30T00:42:03.592Z,99097.99
2018-01-30T00:44:32.670Z,99108.14
2018-01-30T00:47:01.708Z,99103.94
2018-01-30T00:49:30.776Z,99112.41
2018-01-30T00:51:59.059Z,99099.45
2018-01-30T00:54:27.367Z,99102.11
2018-01-30T00:56:55.611Z,99096.25
2018-01-30T00:59:23.873Z,99112.08
2018-01-30T01:01:52.897Z,99106.17
2018-01-30T01:04:21.154Z,99114.12
2018-01-30T01:06:49.401Z,99109.52
2018-01-30T01:09:17.659Z,99110.75
2018-01-30T01:11:45.961Z,99107.37
2018-01-30T01:14:14.237Z,99108.91
2018-01-30T01:16:42.520Z,99109.11
2018-01-30T01:19:11.543Z,99117.30
2018-01-30T01:21:39.787Z,99110.75
2018-01-30T01:24:08.063Z,99103.61
2018-01-30T01:26:36.312Z,99111.62
2018-01-30T01:29:04.584Z,99112.98
2018-01-30T01:31:32.866Z,99102.05
2018-01-30T01:34:01.890Z,99109.61
2018-01-30T01:36:30.193Z,99106.03
2018-01-30T01:38:58.631Z,99100.55
2018-01-30T01:41:27.712Z,99110.11
2018-01-30T01:43:56.003Z,99104.56
2018-01-30T01:46:24.252Z,99105.80
2018-01-30T01:48:52.503Z,99109.70
2018-01-30T01:51:20.777Z,99111.66
2018-01-30T01:53:49.034Z,99106.35
2018-01-30T01:56:17.329Z,99104.20
2018-01-30T01:58:45.668Z,99102.72
2018-01-30T02:01:14.726Z,99097.17
2018-01-30T02:03:42.967Z,99105.23
2018-01-30T02:06:11.231Z,99102.78
2018-01-30T02:08:39.493Z,99100.66
2018-01-30T02:11:07.763Z,99106.20
2018-01-30T02:13:36.019Z,99101.58
2018-01-30T02:16:04.289Z,99104.45
2018-01-30T02:18:32.555Z,99107.62
2018-01-30T02:21:00.845Z,99105.29
2018-01-30T02:23:29.188Z,99107.63
2018-01-30T02:25:58.586Z,99109.41
2018-01-30T02:28:27.683Z,99110.33
2018-01-30T02:30:56.116Z,99107.17
2018-01-30T02:33:24.384Z,99109.73
2018-01-30T02:35:52.657Z,99104.93
2018-01-30T02:38:20.907Z,99104.12
2018-01-30T02:40:49.161Z,99110.38
2018-01-30T02:43:17.414Z,99108.67
2018-01-30T02:45:45.702Z,99101.22
2018-01-30T02:48:13.955Z,99104.38
2018-01-30T02:50:42.235Z,99103.28
2018-01-30T02:53:10.488Z,99088.56
2018-01-30T02:55:38.751Z,99101.45
2018-01-30T02:58:07.008Z,99092.03
2018-01-30T03:00:35.272Z,99094.79
2018-01-30T03:03:04.660Z,99097.75
2018-01-30T03:05:32.931Z,99086.09
2018-01-30T03:08:01.212Z,99093.45
2018-01-30T03:10:29.508Z,99096.16
2018-01-30T03:12:58.033Z,99088.38
2018-01-30T03:15:27.139Z,99091.52
2018-01-30T03:17:55.403Z,99089.97
2018-01-30T03:20:23.691Z,99083.48
2018-01-30T03:22:51.961Z,99086.03
2018-01-30T03:25:20.204Z,99079.41
2018-01-30T03:27:48.467Z,99071.55
2018-01-30T03:30:16.725Z,99072.55
2018-01-30T03:32:45.012Z,99070.95
2018-01-30T03:35:13.385Z,99078.45
2018-01-30T03:37:42.411Z,99081.56
2018-01-30T03:40:10.658Z,99080.59
2018-01-30T03:42:40.428Z,99085.91
2018-01-30T03:45:08.688Z,99092.17
2018-01-30T03:47:37.729Z,99086.55
2018-01-30T03:50:06.008Z,99080.01
2018-01-30T03:52:34.273Z,99085.72
2018-01-30T03:55:03.285Z,99087.69
2018-01-30T03:57:32.348Z,99085.23
2018-01-30T04:00:00.623Z,99086.14
2018-01-30T04:02:28.930Z,99088.92
2018-01-30T04:04:57.228Z,99094.05
2018-01-30T04:07:25.547Z,99089.80
2018-01-30T04:09:53.811Z,99093.59
2018-01-30T04:12:22.067Z,99091.20
2018-01-30T04:14:50.323Z,99097.60
2018-01-30T04:17:19.351Z,99099.74
2018-01-30T04:19:47.600Z,99103.14
2018-01-30T04:22:16.638Z,99098.66
2018-01-30T04:24:44.930Z,99106.53
2018-01-30T04:27:13.194Z,99107.88
2018-01-30T04:29:42.202Z,99111.41
2018-01-30T04:32:11.235Z,99108.59
2018-01-30T04:34:39.494Z,99107.25
2018-01-30T04:37:08.520Z,99108.36
2018-01-30T04:39:36.769Z,99107.80
2018-01-30T04:42:05.038Z,99111.69
2018-01-30T04:44:33.295Z,99120.47
2018-01-30T04:47:01.597Z,99120.78
2018-01-30T04:49:29.877Z,99123.16
2018-01-30T04:51:58.147Z,99127.57
2018-01-30T04:54:26.448Z,99132.14
2018-01-30T04:56:54.705Z,99134.48
2018-01-30T04:59:23.755Z,99129.71
2018-01-30T05:01:52.006Z,99125.11
2018-01-30T05:04:21.040Z,99128.99
2018-01-30T05:06:49.303Z,99136.84
2018-01-30T05:09:18.336Z,99138.73
2018-01-30T05:11:46.622Z,99142.03
2018-01-30T05:14:14.902Z,99148.80
2018-01-30T05:16:43.146Z,99153.01
2018-01-30T05:19:11.438Z,99151.43
2018-01-30T05:21:39.700Z,99163.37
2018-01-30T05:24:07.964Z,99168.59
2018-01-30T05:26:36.207Z,99177.09
2018-01-30T05:29:04.468Z,99168.21
2018-01-30T05:31:32.724Z,99175.28
2018-01-30T05:34:01.017Z,99168.05
2018-01-30T05:36:29.287Z,99177.82
2018-01-30T05:38:58.348Z,99190.56
2018-01-30T05:41:26.648Z,99192.05
2018-01-30T05:43:54.920Z,99189.16
2018-01-30T05:46:23.172Z,99184.14
2018-01-30T05:48:51.430Z,99188.41
2018-01-30T05:51:19.673Z,99191.09
2018-01-30T05:53:47.943Z,99189.50
2018-01-30T05:56:16.209Z,99186.80
2018-01-30T05:58:46.028Z,99191.16
2018-01-30T06:01:14.356Z,99185.34
2018-01-30T06:03:42.644Z,99192.50
2018-01-30T06:06:10.949Z,99194.31
2018-01-30T06:08:39.964Z,99189.62
2018-01-30T06:11:08.252Z,99201.86
2018-01-30T06:13:36.517Z,99197.10
2018-01-30T06:16:04.912Z,99197.25
2018-01-30T06:18:33.173Z,99199.98
2018-01-30T06:21:01.491Z,99226.77
2018-01-30T06:23:29.784Z,99208.20
2018-01-30T06:25:58.188Z,99207.73
2018-01-30T06:28:26.551Z,99203.50
2018-01-30T06:30:55.037Z,99209.38
2018-01-30T06:33:24.055Z,99205.23
2018-01-30T06:35:52.330Z,99216.67
2018-01-30T06:38:21.894Z,99215.53
2018-01-30T06:40:50.163Z,99214.14
2018-01-30T06:43:18.407Z,99211.80
2018-01-30T06:45:46.689Z,99208.50
2018-01-30T06:48:14.979Z,99212.20
2018-01-30T06:50:43.240Z,99210.89
2018-01-30T06:53:11.490Z,99209.42
2018-01-30T06:55:39.762Z,99207.84
2018-01-30T06:58:08.799Z,99229.06
2018-01-30T07:00:37.118Z,99214.16
2018-01-30T07:03:05.399Z,99217.96
2018-01-30T07:05:33.675Z,99219.22
2018-01-30T07:08:01.958Z,99218.52
2018-01-30T07:10:30.264Z,99226.09
2018-01-30T07:12:58.553Z,99216.57
2018-01-30T07:15:26.908Z,99225.64
2018-01-30T07:17:55.181Z,99227.11
2018-01-30T07:20:23.489Z,99234.38
2018-01-30T07:22:51.745Z,99236.72
2018-01-30T07:25:20.004Z,99239.69
2018-01-30T07:27:48.278Z,99239.77
2018-01-30T07:30:16.567Z,99237.89
2018-01-30T07:32:44.851Z,99241.67
2018-01-30T07:35:13.131Z,99236.09
2018-01-30T07:37:41.384Z,99237.61
2018-01-30T07:40:09.706Z,99229.55
2018-01-30T07:42:38.214Z,99225.64
2018-01-30T07:45:06.483Z,99226.61
2018-01-30T07:47:35.534Z,99225.78
2018-01-30T07:50:03.780Z,99229.28
2018-01-30T07:52:32.833Z,99228.78
2018-01-30T07:55:01.080Z,99232.45
2018-01-30T07:57:29.361Z,99229.38
2018-01-30T07:59:57.772Z,99226.72
2018-01-30T08:02:26.107Z,99229.14
2018-01-30T08:04:54.361Z,99232.89
2018-01-30T08:07:22.655Z,99227.43
2018-01-30T08:09:50.913Z,99238.67
2018-01-30T08:12:19.968Z,99246.50
2018-01-30T08:14:48.215Z,99253.78
2018-01-30T08:17:16.510Z,99245.02
2018-01-30T08:19:45.563Z,99248.34
2018-01-30T08:22:13.848Z,99262.88
2018-01-30T08:24:42.113Z,99264.26
2018-01-30T08:27:16.028Z,99254.41
2018-01-30T08:29:44.301Z,99273.62
2018-01-30T08:32:13.352Z,99257.15
2018-01-30T08:34:41.598Z,99264.92
2018-01-30T08:37:09.850Z,99265.01
2018-01-30T08:39:38.124Z,99264.11
2018-01-30T08:42:06.393Z,99264.28
2018-01-30T08:44:34.677Z,99262.64
2018-01-30T08:47:02.929Z,99264.03
2018-01-30T08:49:31.963Z,99255.24
2018-01-30T08:52:00.300Z,99251.35
2018-01-30T08:54:28.727Z,99254.16
2018-01-30T08:56:57.509Z,99264.45
2018-01-30T08:59:26.591Z,99261.14
2018-01-30T09:01:54.853Z,99262.02
2018-01-30T09:04:23.108Z,99249.42
2018-01-30T09:06:51.392Z,99253.91
2018-01-30T09:09:19.644Z,99249.75
2018-01-30T09:11:47.927Z,99259.38
2018-01-30T09:14:16.212Z,99264.84
2018-01-30T09:16:44.471Z,99250.17
2018-01-30T09:19:14.296Z,99250.53
2018-01-30T09:21:42.544Z,99248.83
2018-01-30T09:24:10.804Z,99248.44
2018-01-30T09:26:39.058Z,99238.44
2018-01-30T09:29:07.336Z,99243.83
2018-01-30T09:31:36.937Z,99233.33
2018-01-30T09:34:05.983Z,99237.63
2018-01-30T09:36:34.236Z,99231.89
2018-01-30T09:39:02.503Z,99225.91
2018-01-30T09:41:30.785Z,99219.33
2018-01-30T09:43:59.062Z,99223.66
2018-01-30T09:46:27.389Z,99224.77
2018-01-30T09:48:55.680Z,99228.75
2018-01-30T09:51:24.718Z,99236.52
2018-01-30T09:53:53.023Z,99236.61
2018-01-30T09:56:21.282Z,99239.11
2018-01-30T09:58:50.914Z,99237.50
2018-01-30T10:01:19.172Z,99244.19
2018-01-30T10:03:47.456Z,99243.17
2018-01-30T10:06:15.751Z,99244.69
2018-01-30T10:08:44.019Z,99236.89
2018-01-30T10:11:12.272Z,99240.00
2018-01-30T10:13:40.546Z,99229.92
2018-01-30T10:16:09.930Z,99231.52
2018-01-30T10:18:38.232Z,99231.09
2018-01-30T10:21:07.253Z,99227.84
2018-01-30T10:23:36.285Z,99234.78
2018-01-30T10:26:04.581Z,99226.78
2018-01-30T10:28:32.844Z,99231.09
2018-01-30T10:31:01.143Z,99225.36
2018-01-30T10:33:29.484Z,99220.93
2018-01-30T10:35:58.003Z,99227.50
2018-01-30T10:38:27.113Z,99220.22
2018-01-30T10:40:55.396Z,99224.25
2018-01-30T10:43:24.437Z,99218.78
2018-01-30T10:45:52.691Z,99213.84
2018-01-30T10:48:21.715Z,99208.75
2018-01-30T10:50:49.980Z,99215.66
2018-01-30T10:53:18.295Z,99206.59
2018-01-30T10:55:46.661Z,99200.89
2018-01-30T10:58:14.932Z,99194.38
2018-01-30T11:00:43.193Z,99189.23
2018-01-30T11:03:11.443Z,99188.06
2018-01-30T11:05:40.471Z,99187.59
2018-01-30T11:08:09.542Z,99180.05
2018-01-30T11:10:37.808Z,99186.27
2018-01-30T11:13:06.061Z,99180.53
2018-01-30T11:15:35.082Z,99171.75
2018-01-30T11:18:03.329Z,99170.86
2018-01-30T11:20:32.359Z,99163.11
2018-01-30T11:23:00.619Z,99163.22
2018-01-30T11:25:29.719Z,99166.80
2018-01-30T11:27:58.019Z,99161.27
2018-01-30T11:30:27.072Z,99151.05
2018-01-30T11:32:55.369Z,99157.67
2018-01-30T11:35:23.635Z,99150.95
2018-01-30T11:37:51.909Z,99144.69
2018-01-30T11:40:20.178Z,99142.16
2018-01-30T11:42:49.200Z,99138.94
2018-01-30T11:45:18.235Z,99138.98
2018-01-30T11:47:46.499Z,99134.91
2018-01-30T11:50:15.545Z,99141.88
2018-01-30T11:52:43.826Z,99136.09
2018-01-30T11:55:12.175Z,99129.98
2018-01-30T11:57:41.187Z,99132.41
2018-01-30T12:00:09.495Z,99135.48
2018-01-30T12:02:37.755Z,99129.86
2018-01-30T12:05:06.027Z,99128.14
2018-01-30T12:07:34.273Z,99125.34
2018-01-30T12:10:02.542Z,99121.38
2018-01-30T12:12:30.811Z,99117.91
2018-01-30T12:14:59.848Z,99109.19
2018-01-30T12:17:28.159Z,99110.92
2018-01-30T12:19:56.428Z,99106.66
2018-01-30T12:22:24.705Z,99102.05
2018-01-30T12:24:52.948Z,99105.42
2018-01-30T12:27:21.253Z,99104.35
2018-01-30T12:29:49.502Z,99100.97
2018-01-30T12:32:17.772Z,99094.69
2018-01-30T12:34:46.028Z,99095.56
2018-01-30T12:37:15.091Z,99085.80
2018-01-30T12:39:43.361Z,99084.63
2018-01-30T12:42:11.638Z,99085.95
2018-01-30T12:44:39.883Z,99099.17
2018-01-30T12:47:08.165Z,99076.42
2018-01-30T12:49:37.092Z,99069.80
2018-01-30T12:52:05.367Z,99070.94
2018-01-30T12:54:33.623Z,99064.28
2018-01-30T12:57:01.911Z,99061.83
2018-01-30T12:59:30.195Z,99062.65
2018-01-30T13:01:58.511Z,99057.61
2018-01-30T13:04:26.840Z,99054.97
2018-01-30T13:06:55.903Z,99046.47
2018-01-30T13:09:24.157Z,99043.64
2018-01-30T13:11:52.436Z,99030.04
2018-01-30T13:14:20.698Z,99035.47
2018-01-30T13:16:48.967Z,99029.05
2018-01-30T13:19:17.248Z,99040.39
2018-01-30T13:21:45.576Z,99025.08
2018-01-30T13:24:13.826Z,99024.16
2018-01-30T13:26:42.118Z,99021.98
2018-01-30T13:29:10.363Z,99013.19
2018-01-30T13:31:38.622Z,99018.22
2018-01-30T13:34:06.866Z,99016.98
2018-01-30T13:36:35.124Z,99011.68
2018-01-30T13:39:04.182Z,99009.94
2018-01-30T13:41:32.446Z,99005.64
2018-01-30T13:46:37.792Z,99006.76
2018-01-30T13:49:06.825Z,99004.70
2018-01-30T13:51:35.079Z,99005.53
2018-01-30T13:54:03.362Z,99001.55
2018-01-30T13:56:31.629Z,99000.25
2018-01-30T13:58:59.911Z,98996.15
2018-01-30T14:01:28.197Z,98994.03
2018-01-30T14:03:56.478Z,98996.63
2018-01-30T14:06:24.736Z,99003.57
2018-01-30T14:08:53.018Z,98995.36
2018-01-30T14:11:22.225Z,98995.33
2018-01-30T14:13:51.263Z,98992.77
2018-01-30T14:16:19.532Z,98992.30
2018-01-30T14:18:47.801Z,98989.64
2018-01-30T14:21:16.827Z,98989.73
2018-01-30T14:23:45.860Z,98981.78
2018-01-30T14:26:14.139Z,98985.53
2018-01-30T14:28:42.447Z,98990.34
2018-01-30T14:31:10.716Z,98980.33
2018-01-30T14:33:38.999Z,98976.98
2018-01-30T14:36:08.198Z,98980.61
2018-01-30T14:38:37.228Z,98986.08
2018-01-30T14:41:05.488Z,98981.81
2018-01-30T14:43:34.531Z,98978.15
2018-01-30T14:46:02.800Z,98985.92
2018-01-30T14:48:31.832Z,98975.97
2018-01-30T14:51:00.108Z,98982.38
2018-01-30T14:53:28.444Z,98974.52
2018-01-30T14:55:57.506Z,98971.14
2018-01-30T14:58:26.075Z,98968.30
2018-01-30T15:00:54.415Z,98963.17
2018-01-30T15:03:22.664Z,98965.61
2018-01-30T15:05:50.924Z,98964.06
2018-01-30T15:08:19.225Z,98961.70
2018-01-30T15:10:48.263Z,98964.86
2018-01-30T15:13:16.523Z,98965.20
2018-01-30T15:15:45.591Z,98963.78
2018-01-30T15:18:13.868Z,98957.65
2018-01-30T15:20:42.188Z,98962.56
2018-01-30T15:23:10.444Z,98960.20
2018-01-30T15:25:38.733Z,98954.03
2018-01-30T15:28:06.981Z,98943.01
2018-01-30T15:30:36.029Z,98942.87
2018-01-30T15:33:04.274Z,98943.23
2018-01-30T15:35:33.326Z,98944.11
2018-01-30T15:38:01.970Z,98940.39
2018-01-30T15:40:31.031Z,98952.98
2018-01-30T15:42:59.321Z,98940.23
2018-01-30T15:45:27.628Z,98944.11
2018-01-30T15:47:55.890Z,98935.84
2018-01-30T15:50:24.159Z,98932.88
2018-01-30T15:52:52.456Z,98930.22
2018-01-30T15:55:20.718Z,98926.20
2018-01-30T15:57:50.520Z,98928.77
2018-01-30T16:00:18.791Z,98923.23
2018-01-30T16:02:47.043Z,98915.19
2018-01-30T16:05:15.333Z,98918.75
2018-01-30T16:07:43.606Z,98915.01
2018-01-30T16:10:12.689Z,98904.08
2018-01-30T16:12:40.931Z,98901.34
2018-01-30T16:15:09.253Z,98906.95
2018-01-30T16:17:37.575Z,98896.13
2018-01-30T16:20:06.619Z,98893.70
2018-01-30T16:22:34.884Z,98890.88
2018-01-30T16:25:03.928Z,98888.09
2018-01-30T16:27:32.195Z,98882.37
2018-01-30T16:30:00.490Z,98882.73
2018-01-30T16:32:28.869Z,98887.02
2018-01-30T16:34:57.154Z,98886.12
2018-01-30T16:37:26.240Z,98881.50
2018-01-30T16:39:55.274Z,98881.40
2018-01-30T16:42:23.559Z,98879.27
2018-01-30T16:44:51.831Z,98878.77
2018-01-30T16:47:20.877Z,98878.42
2018-01-30T16:49:49.143Z,98880.16
2018-01-30T16:52:18.192Z,98882.31
2018-01-30T16:54:46.438Z,98879.33
2018-01-30T16:57:14.748Z,98864.27
2018-01-30T16:59:43.151Z,98869.33
2018-01-30T17:02:11.445Z,98879.09
2018-01-30T17:04:39.704Z,98872.39
2018-01-30T17:07:08.919Z,98865.87
2018-01-30T17:09:37.185Z,98866.59
2018-01-30T17:12:06.215Z,98866.91
2018-01-30T17:14:35.223Z,98860.56
2018-01-30T17:17:03.488Z,98864.45
2018-01-30T17:19:32.521Z,98857.51
2018-01-30T17:22:00.851Z,98860.58
2018-01-30T17:24:29.173Z,98855.98
2018-01-30T17:26:58.247Z,98850.23
2018-01-30T17:29:26.561Z,98857.49
2018-01-30T17:31:54.827Z,98857.27
2018-01-30T17:34:23.086Z,98841.04
2018-01-30T17:36:51.392Z,98844.91
2018-01-30T17:39:19.685Z,98843.69
2018-01-30T17:41:47.947Z,98842.68
2018-01-30T17:44:16.979Z,98844.84
2018-01-30T17:46:45.264Z,98841.56
2018-01-30T17:49:14.282Z,98834.13
2018-01-30T17:51:42.616Z,98834.35
2018-01-30T17:54:12.374Z,98832.63
2018-01-30T17:56:40.647Z,98837.71
2018-01-30T17:59:09.668Z,98834.84
2018-01-30T18:01:37.964Z,98831.59
2018-01-30T18:04:06.268Z,98835.25
2018-01-30T18:06:35.463Z,98836.16
2018-01-30T18:09:03.755Z,98833.92
2018-01-30T18:11:32.028Z,98833.94
2018-01-30T18:14:01.184Z,98833.02
2018-01-30T18:16:29.733Z,98828.06
2018-01-30T18:18:58.255Z,98832.63
2018-01-30T18:21:26.622Z,98832.75
2018-01-30T18:23:54.925Z,98834.08
2018-01-30T18:26:23.191Z,98831.05
2018-01-30T18:28:52.252Z,98833.74
2018-01-30T18:31:20.498Z,98830.76
2018-01-30T18:33:48.848Z,98829.95
2018-01-30T18:36:18.614Z,98832.08
2018-01-30T18:38:46.944Z,98832.86
2018-01-30T18:41:15.281Z,98830.71
2018-01-30T18:43:44.320Z,98836.73
2018-01-30T18:46:12.579Z,98830.80
2018-01-30T18:48:42.357Z,98829.39
2018-01-30T18:51:10.611Z,98828.98
2018-01-30T18:53:38.895Z,98824.98
2018-01-30T18:56:07.155Z,98820.61
2018-01-30T18:58:37.021Z,98828.23
2018-01-30T19:01:05.290Z,98820.75
2018-01-30T19:03:34.324Z,98824.99
2018-01-30T19:06:02.633Z,98822.03
2018-01-30T19:08:31.759Z,98819.78
2018-01-30T19:11:00.049Z,98821.69
2018-01-30T19:13:28.634Z,98824.75
2018-01-30T19:15:57.002Z,98814.59
2018-01-30T19:18:25.334Z,98816.73
2018-01-30T19:20:53.655Z,98812.43
2018-01-30T19:23:21.971Z,98822.78
2018-01-30T19:25:50.260Z,98820.92
2018-01-30T19:28:18.567Z,98817.97
2018-01-30T19:30:46.869Z,98812.72
2018-01-30T19:33:15.145Z,98814.38
2018-01-30T19:35:43.446Z,98813.69
2018-01-30T19:38:11.686Z,98813.54
2018-01-30T19:40:40.058Z,98810.27
2018-01-30T19:43:08.339Z,98811.26
2018-01-30T19:45:36.643Z,98800.26
2018-01-30T19:48:05.741Z,98808.61
2018-01-30T19:50:34.098Z,98808.38
2018-01-30T19:53:02.368Z,98806.23
2018-01-30T19:55:30.744Z,98797.37
2018-01-30T19:57:59.159Z,98806.55
2018-01-30T20:00:28.288Z,98796.78
2018-01-30T20:02:56.580Z,98793.55
2018-01-30T20:05:24.870Z,98791.13
2018-01-30T20:07:53.123Z,98787.16
2018-01-30T20:10:21.444Z,98784.69
2018-01-30T20:12:49.732Z,98785.92
2018-01-30T20:15:18.054Z,98791.44
2018-01-30T20:17:47.091Z,98780.03
2018-01-30T20:20:15.480Z,98788.89
2018-01-30T20:22:43.753Z,98778.08
2018-01-30T20:25:12.818Z,98779.12
2018-01-30T20:27:41.122Z,98773.37
2018-01-30T20:30:09.466Z,98770.12
2018-01-30T20:32:37.731Z,98767.02
2018-01-30T20:35:05.980Z,98760.80
2018-01-30T20:37:34.303Z,98756.91
2018-01-30T20:40:03.344Z,98755.38
2018-01-30T20:42:31.611Z,98748.25
2018-01-30T20:44:59.974Z,98747.52
2018-01-30T20:47:29.163Z,98745.55
2018-01-30T20:49:57.666Z,98729.58
2018-01-30T20:52:26.951Z,98739.51
2018-01-30T20:54:56.341Z,98730.11
2018-01-30T20:57:24.650Z,98729.66
2018-01-30T20:59:52.933Z,98728.58
2018-01-30T21:02:21.180Z,98720.41
2018-01-30T21:04:50.280Z,98722.65
2018-01-30T21:07:18.592Z,98721.27
2018-01-30T21:09:47.696Z,98715.85
2018-01-30T21:12:15.933Z,98714.78
2018-01-30T21:14:44.302Z,98718.63
2018-01-30T21:17:12.607Z,98704.73
2018-01-30T21:19:40.863Z,98710.66
2018-01-30T21:22:09.899Z,98702.34
2018-01-30T21:24:38.160Z,98703.26
2018-01-30T21:27:07.203Z,98688.30
2018-01-30T21:29:36.418Z,98685.36
2018-01-30T21:32:04.740Z,98682.50
2018-01-30T21:34:33.058Z,98681.03
2018-01-30T21:37:01.438Z,98665.22
2018-01-30T21:39:30.567Z,98663.75
2018-01-30T21:41:58.869Z,98665.45
2018-01-30T21:44:27.213Z,98663.16
2018-01-30T21:46:56.501Z,98671.67
2018-01-30T21:49:25.565Z,98666.54
2018-01-30T21:51:53.927Z,98660.69
2018-01-30T21:54:22.167Z,98664.40
2018-01-30T21:56:50.432Z,98658.44
2018-01-30T21:59:18.679Z,98648.06
2018-01-30T22:01:46.947Z,98657.27
2018-01-30T22:04:15.318Z,98648.11
2018-01-30T22:06:43.868Z,98647.20
2018-01-30T22:09:12.165Z,98652.33
2018-01-30T22:11:41.601Z,98642.48
2018-01-30T22:14:09.866Z,98639.06
2018-01-30T22:16:38.165Z,98639.84
2018-01-30T22:19:07.177Z,98635.20
2018-01-30T22:21:36.210Z,98640.02
2018-01-30T22:24:04.531Z,98629.53
2018-01-30T22:26:32.803Z,98635.23
2018-01-30T22:29:01.155Z,98623.83
2018-01-30T22:31:30.212Z,98608.27
2018-01-30T22:33:58.624Z,98615.11
2018-01-30T22:36:28.050Z,98616.05
2018-01-30T22:38:57.257Z,98624.91
2018-01-30T22:41:26.434Z,98618.06
2018-01-30T22:43:54.728Z,98618.88
2018-01-30T22:46:24.998Z,98617.15
